Wetterdaten: Mittwoch, 15.12.2010
Datum Zeit Temp. A. Feuchte A. Luftdruck Regen Wind Richtung Richtung Sonnenschein UV Solar Windben
15.12.2010 00:00 -3,4 C 84 % 1029,0 hPa 0,0 mm 1,6 km/h (1 Bft) W-NW 292 0 min 0 UV-I 0 W/m 6,4 km/h (2 Bft)
15.12.2010 00:10 -3,6 C 84 % 1029,0 hPa 0,0 mm 1,6 km/h (1 Bft) W-NW 292 0 min 0 UV-I 0 W/m 8,0 km/h (2 Bft)
15.12.2010 00:20 -3,7 C 84 % 1029,0 hPa 0,0 mm 1,6 km/h (1 Bft) W-NW 292 0 min 0 UV-I 0 W/m 6,4 km/h (2 Bft)
15.12.2010 00:30 -3,8 C 84 % 1028,9 hPa 0,0 mm 1,6 km/h (1 Bft) W-NW 292 0 min 0 UV-I 0 W/m 6,4 km/h (2 Bft)
15.12.2010 00:40 -4,0 C 84 % 1028,9 hPa 0,0 mm 0,0 km/h (0 Bft) W-NW 292 0 min 0 UV-I 0 W/m 3,2 km/h (1 Bft)
15.12.2010 00:50 -4,2 C 84 % 1028,9 hPa 0,0 mm 1,6 km/h (1 Bft) W-NW 292 0 min 0 UV-I 0 W/m 6,4 km/h (2 Bft)
15.12.2010 01:00 -4,3 C 84 % 1028,8 hPa 0,0 mm 1,6 km/h (1 Bft) W 270 0 min 0 UV-I 0 W/m 6,4 km/h (2 Bft)
15.12.2010 01:10 -4,4 C 85 % 1028,7 hPa 0,0 mm 0,0 km/h (0 Bft) N-NW 337 0 min 0 UV-I 0 W/m 8,0 km/h (2 Bft)
15.12.2010 01:20 -4,5 C 85 % 1028,7 hPa 0,0 mm 1,6 km/h (1 Bft) W 270 0 min 0 UV-I 0 W/m 6,4 km/h (2 Bft)
15.12.2010 01:30 -4,6 C 85 % 1028,6 hPa 0,0 mm 1,6 km/h (1 Bft) W 270 0 min 0 UV-I 0 W/m 8,0 km/h (2 Bft)
15.12.2010 01:40 -4,7 C 85 % 1028,5 hPa 0,0 mm 1,6 km/h (1 Bft) W 270 0 min 0 UV-I 0 W/m 8,0 km/h (2 Bft)
15.12.2010 01:50 -4,8 C 85 % 1028,4 hPa 0,0 mm 0,0 km/h (0 Bft) W 270 0 min 0 UV-I 0 W/m 4,8 km/h (1 Bft)
15.12.2010 02:00 -4,9 C 85 % 1028,4 hPa 0,0 mm 0,0 km/h (0 Bft) W 270 0 min 0 UV-I 0 W/m 9,7 km/h (2 Bft)
15.12.2010 02:10 -5,1 C 85 % 1028,4 hPa 0,0 mm 1,6 km/h (1 Bft) W 270 0 min 0 UV-I 0 W/m 8,0 km/h (2 Bft)
15.12.2010 02:20 -5,1 C 86 % 1028,4 hPa 0,0 mm 3,2 km/h (1 Bft) W 270 0 min 0 UV-I 0 W/m 11,3 km/h (2 Bft)
15.12.2010 02:30 -5,2 C 86 % 1028,4 hPa 0,0 mm 1,6 km/h (1 Bft) W 270 0 min 0 UV-I 0 W/m 8,0 km/h (2 Bft)
15.12.2010 02:40 -5,2 C 87 % 1028,4 hPa 0,0 mm 4,8 km/h (1 Bft) W 270 0 min 0 UV-I 0 W/m 16,1 km/h (3 Bft)
15.12.2010 02:50 -5,2 C 87 % 1028,4 hPa 0,0 mm 1,6 km/h (1 Bft) W 270 0 min 0 UV-I 0 W/m 8,0 km/h (2 Bft)
15.12.2010 03:00 -5,3 C 87 % 1028,4 hPa 0,0 mm 0,0 km/h (0 Bft) W-SW 247 0 min 0 UV-I 0 W/m 3,2 km/h (1 Bft)
15.12.2010 03:10 -5,4 C 87 % 1028,3 hPa 0,0 mm 1,6 km/h (1 Bft) W 270 0 min 0 UV-I 0 W/m 6,4 km/h (2 Bft)
15.12.2010 03:20 -5,5 C 87 % 1028,2 hPa 0,0 mm 1,6 km/h (1 Bft) W 270 0 min 0 UV-I 0 W/m 4,8 km/h (1 Bft)
15.12.2010 03:30 -5,6 C 87 % 1028,1 hPa 0,0 mm 1,6 km/h (1 Bft) W 270 0 min 0 UV-I 0 W/m 6,4 km/h (2 Bft)
15.12.2010 03:40 -5,7 C 87 % 1028,1 hPa 0,0 mm 1,6 km/h (1 Bft) W 270 0 min 0 UV-I 0 W/m 6,4 km/h (2 Bft)
15.12.2010 03:50 -5,7 C 87 % 1028,1 hPa 0,0 mm 1,6 km/h (1 Bft) W-NW 292 0 min 0 UV-I 0 W/m 4,8 km/h (1 Bft)
15.12.2010 04:00 -5,7 C 88 % 1028,0 hPa 0,0 mm 0,0 km/h (0 Bft) W 270 0 min 0 UV-I 0 W/m 4,8 km/h (1 Bft)
15.12.2010 04:10 -5,6 C 88 % 1027,9 hPa 0,0 mm 1,6 km/h (1 Bft) W 270 0 min 0 UV-I 0 W/m 6,4 km/h (2 Bft)
15.12.2010 04:20 -5,6 C 88 % 1027,9 hPa 0,0 mm 0,0 km/h (0 Bft) W 270 0 min 0 UV-I 0 W/m 4,8 km/h (1 Bft)
15.12.2010 04:30 -5,5 C 88 % 1027,9 hPa 0,0 mm 1,6 km/h (1 Bft) W-NW 292 0 min 0 UV-I 0 W/m 8,0 km/h (2 Bft)
15.12.2010 04:40 -5,5 C 88 % 1027,9 hPa 0,0 mm 3,2 km/h (1 Bft) W 270 0 min 0 UV-I 0 W/m 11,3 km/h (2 Bft)
15.12.2010 04:50 -5,6 C 88 % 1027,8 hPa 0,0 mm 1,6 km/h (1 Bft) W 270 0 min 0 UV-I 0 W/m 6,4 km/h (2 Bft)
15.12.2010 05:00 -5,6 C 88 % 1027,7 hPa 0,0 mm 3,2 km/h (1 Bft) W 270 0 min 0 UV-I 0 W/m 8,0 km/h (2 Bft)
15.12.2010 05:10 -5,6 C 88 % 1027,7 hPa 0,0 mm 1,6 km/h (1 Bft) W-SW 247 0 min 0 UV-I 0 W/m 6,4 km/h (2 Bft)
15.12.2010 05:20 -5,6 C 89 % 1027,5 hPa 0,0 mm 1,6 km/h (1 Bft) W 270 0 min 0 UV-I 0 W/m 8,0 km/h (2 Bft)
15.12.2010 05:30 -5,6 C 89 % 1027,5 hPa 0,0 mm 0,0 km/h (0 Bft) W-NW 292 0 min 0 UV-I 0 W/m 4,8 km/h (1 Bft)
15.12.2010 05:40 -5,5 C 89 % 1027,4 hPa 0,0 mm 1,6 km/h (1 Bft) W-NW 292 0 min 0 UV-I 0 W/m 4,8 km/h (1 Bft)
15.12.2010 05:50 -5,4 C 89 % 1027,3 hPa 0,0 mm 1,6 km/h (1 Bft) W 270 0 min 0 UV-I 0 W/m 9,7 km/h (2 Bft)
15.12.2010 06:00 -5,4 C 89 % 1027,2 hPa 0,0 mm 3,2 km/h (1 Bft) W-SW 247 0 min 0 UV-I 0 W/m 9,7 km/h (2 Bft)
15.12.2010 06:10 -5,4 C 89 % 1027,2 hPa 0,0 mm 1,6 km/h (1 Bft) W 270 0 min 0 UV-I 0 W/m 9,7 km/h (2 Bft)
15.12.2010 06:20 -5,3 C 89 % 1027,1 hPa 0,0 mm 1,6 km/h (1 Bft) W 270 0 min 0 UV-I 0 W/m 11,3 km/h (2 Bft)
15.12.2010 06:30 -5,4 C 89 % 1027,0 hPa 0,0 mm 1,6 km/h (1 Bft) W 270 0 min 0 UV-I 0 W/m 6,4 km/h (2 Bft)
15.12.2010 06:40 -5,4 C 89 % 1027,1 hPa 0,0 mm 1,6 km/h (1 Bft) W 270 0 min 0 UV-I 0 W/m 8,0 km/h (2 Bft)
15.12.2010 06:50 -5,6 C 89 % 1027,0 hPa 0,0 mm 0,0 km/h (0 Bft) SW 232 0 min 0 UV-I 0 W/m 0,0 km/h (0 Bft)
15.12.2010 07:00 -5,6 C 89 % 1027,2 hPa 0,0 mm 0,7 km/h (0 Bft) SW 234 0 min 0 UV-I 0 W/m 4,8 km/h (1 Bft)
15.12.2010 07:10 -5,6 C 89 % 1027,0 hPa 0,0 mm 0,0 km/h (0 Bft) SW 225 0 min 0 UV-I 0 W/m 4,8 km/h (1 Bft)
15.12.2010 07:20 -5,7 C 89 % 1027,1 hPa 0,0 mm 0,0 km/h (0 Bft) SW 225 0 min 0 UV-I 0 W/m 4,8 km/h (1 Bft)
15.12.2010 07:30 -5,7 C 89 % 1026,9 hPa 0,0 mm 0,0 km/h (0 Bft) SW 225 0 min 0 UV-I 0 W/m 3,2 km/h (1 Bft)
15.12.2010 07:40 -5,7 C 89 % 1026,9 hPa 0,0 mm 0,0 km/h (0 Bft) SW 225 0 min 0 UV-I 0 W/m 3,2 km/h (1 Bft)
15.12.2010 07:50 -5,7 C 89 % 1026,9 hPa 0,0 mm 0,0 km/h (0 Bft) SW 225 0 min 0 UV-I 0 W/m 3,2 km/h (1 Bft)
15.12.2010 08:00 -5,6 C 89 % 1026,9 hPa 0,0 mm 0,2 km/h (0 Bft) SW 233 0 min 0 UV-I 0 W/m 1,6 km/h (1 Bft)
15.12.2010 08:10 -5,6 C 89 % 1026,7 hPa 0,0 mm 0,0 km/h (0 Bft) SW 225 0 min 0 UV-I 0 W/m 3,2 km/h (1 Bft)
15.12.2010 08:20 -5,5 C 89 % 1026,6 hPa 0,0 mm 0,0 km/h (0 Bft) SW 225 0 min 0 UV-I 0 W/m 3,2 km/h (1 Bft)
15.12.2010 08:30 -5,4 C 90 % 1026,7 hPa 0,0 mm 0,0 km/h (0 Bft) SW 225 0 min 0 UV-I 0 W/m 3,2 km/h (1 Bft)
15.12.2010 08:40 -5,3 C 90 % 1026,5 hPa 0,0 mm 0,0 km/h (0 Bft) SW 225 0 min 0 UV-I 0 W/m 3,2 km/h (1 Bft)
15.12.2010 08:50 -5,2 C 90 % 1026,6 hPa 0,0 mm 0,0 km/h (0 Bft) SW 225 0 min 0 UV-I 0 W/m 3,2 km/h (1 Bft)
15.12.2010 09:00 -5,2 C 90 % 1026,3 hPa 0,0 mm 0,0 km/h (0 Bft) W-SW 247 0 min 0 UV-I 0 W/m 3,2 km/h (1 Bft)
15.12.2010 09:10 -5,1 C 90 % 1026,5 hPa 0,0 mm 0,0 km/h (0 Bft) W-SW 247 0 min 0 UV-I 0 W/m 1,6 km/h (1 Bft)
15.12.2010 09:20 -5,0 C 90 % 1026,4 hPa 0,0 mm 0,0 km/h (0 Bft) W-SW 247 0 min 0 UV-I 0 W/m 3,2 km/h (1 Bft)
15.12.2010 09:30 -4,9 C 90 % 1026,4 hPa 0,0 mm 0,0 km/h (0 Bft) W-SW 247 0 min 0 UV-I 5 W/m 3,2 km/h (1 Bft)
15.12.2010 09:40 -4,9 C 90 % 1026,4 hPa 0,0 mm 0,0 km/h (0 Bft) W-SW 247 0 min 0 UV-I 5 W/m 3,2 km/h (1 Bft)
15.12.2010 09:50 -4,8 C 90 % 1026,4 hPa 0,0 mm 0,0 km/h (0 Bft) W-SW 247 0 min 0 UV-I 5 W/m 4,8 km/h (1 Bft)
15.12.2010 10:00 -4,7 C 90 % 1026,3 hPa 0,0 mm 0,0 km/h (0 Bft) W-SW 247 0 min 0 UV-I 0 W/m 4,8 km/h (1 Bft)
15.12.2010 10:10 -4,6 C 90 % 1026,4 hPa 0,0 mm 0,0 km/h (0 Bft) W 270 0 min 0 UV-I 0 W/m 4,8 km/h (1 Bft)
15.12.2010 10:20 -4,6 C 90 % 1026,3 hPa 0,0 mm 0,0 km/h (0 Bft) W 270 0 min 0 UV-I 5 W/m 3,2 km/h (1 Bft)
15.12.2010 10:30 -4,5 C 90 % 1026,2 hPa 0,0 mm 0,0 km/h (0 Bft) NW 315 0 min 0 UV-I 5 W/m 6,4 km/h (2 Bft)
15.12.2010 10:40 -4,4 C 90 % 1026,2 hPa 0,0 mm 0,0 km/h (0 Bft) W-NW 292 0 min 0 UV-I 5 W/m 4,8 km/h (1 Bft)
15.12.2010 10:50 -4,3 C 90 % 1026,1 hPa 0,0 mm 0,0 km/h (0 Bft) W-NW 292 0 min 0 UV-I 14 W/m 3,2 km/h (1 Bft)
15.12.2010 11:00 -4,3 C 90 % 1026,3 hPa 0,0 mm 0,0 km/h (0 Bft) W-NW 292 0 min 0 UV-I 25 W/m 3,2 km/h (1 Bft)
15.12.2010 11:10 -4,2 C 90 % 1026,1 hPa 0,0 mm 0,0 km/h (0 Bft) W-NW 292 0 min 0 UV-I 28 W/m 3,2 km/h (1 Bft)
15.12.2010 11:20 -4,0 C 90 % 1026,1 hPa 0,0 mm 0,0 km/h (0 Bft) W-NW 292 0 min 0 UV-I 33 W/m 3,2 km/h (1 Bft)
15.12.2010 11:30 -3,9 C 90 % 1026,0 hPa 0,0 mm 0,0 km/h (0 Bft) W-NW 292 0 min 0 UV-I 44 W/m 4,8 km/h (1 Bft)
15.12.2010 11:40 -3,8 C 90 % 1025,9 hPa 0,0 mm 0,0 km/h (0 Bft) W-NW 292 0 min 0 UV-I 33 W/m 4,8 km/h (1 Bft)
15.12.2010 11:50 -3,7 C 90 % 1025,9 hPa 0,0 mm 0,0 km/h (0 Bft) W-NW 292 0 min 0 UV-I 49 W/m 3,2 km/h (1 Bft)
15.12.2010 12:00 -3,7 C 90 % 1025,8 hPa 0,0 mm 0,0 km/h (0 Bft) W-NW 292 0 min 0 UV-I 54 W/m 3,2 km/h (1 Bft)
15.12.2010 12:10 -3,7 C 90 % 1025,6 hPa 0,0 mm 0,0 km/h (0 Bft) W-NW 292 0 min 0 UV-I 37 W/m 4,8 km/h (1 Bft)
15.12.2010 12:20 -3,6 C 90 % 1025,6 hPa 0,0 mm 0,0 km/h (0 Bft) W-NW 292 0 min 0 UV-I 18 W/m 4,8 km/h (1 Bft)
15.12.2010 12:30 -3,6 C 90 % 1025,6 hPa 0,0 mm 1,6 km/h (1 Bft) W-NW 292 0 min 0 UV-I 58 W/m 6,4 km/h (2 Bft)
15.12.2010 12:40 -3,4 C 90 % 1025,4 hPa 0,0 mm 0,0 km/h (0 Bft) W-NW 292 0 min 0 UV-I 109 W/m 6,4 km/h (2 Bft)
15.12.2010 12:50 -3,3 C 90 % 1025,2 hPa 0,0 mm 1,6 km/h (1 Bft) W-NW 292 10 min 0 UV-I 149 W/m 4,8 km/h (1 Bft)
15.12.2010 13:00 -3,1 C 90 % 1025,0 hPa 0,0 mm 3,2 km/h (1 Bft) W-NW 292 0 min 0 UV-I 39 W/m 12,9 km/h (3 Bft)
15.12.2010 13:10 -3,1 C 89 % 1024,9 hPa 0,0 mm 3,2 km/h (1 Bft) W-NW 292 10 min 0 UV-I 151 W/m 14,5 km/h (3 Bft)
15.12.2010 13:20 -3,0 C 89 % 1024,9 hPa 0,0 mm 3,2 km/h (1 Bft) W-NW 292 0 min 0 UV-I 113 W/m 11,3 km/h (2 Bft)
15.12.2010 13:30 -2,8 C 88 % 1024,8 hPa 0,0 mm 3,2 km/h (1 Bft) W-NW 292 0 min 0 UV-I 60 W/m 11,3 km/h (2 Bft)
15.12.2010 13:40 -2,6 C 87 % 1024,8 hPa 0,0 mm 1,6 km/h (1 Bft) NW 315 0 min 0 UV-I 65 W/m 8,0 km/h (2 Bft)
15.12.2010 13:50 -2,4 C 86 % 1024,8 hPa 0,0 mm 1,6 km/h (1 Bft) N-NO 22 0 min 0 UV-I 42 W/m 9,7 km/h (2 Bft)
15.12.2010 14:00 -2,4 C 84 % 1024,8 hPa 0,0 mm 1,6 km/h (1 Bft) N-NO 22 0 min 0 UV-I 39 W/m 9,7 km/h (2 Bft)
15.12.2010 14:10 -2,5 C 83 % 1024,9 hPa 0,0 mm 1,6 km/h (1 Bft) N-NO 22 0 min 0 UV-I 28 W/m 9,7 km/h (2 Bft)
15.12.2010 14:20 -2,7 C 82 % 1024,9 hPa 0,0 mm 1,6 km/h (1 Bft) N 360 0 min 0 UV-I 26 W/m 8,0 km/h (2 Bft)
15.12.2010 14:30 -2,8 C 81 % 1025,0 hPa 0,0 mm 3,2 km/h (1 Bft) N-NO 22 0 min 0 UV-I 16 W/m 11,3 km/h (2 Bft)
15.12.2010 14:40 -2,9 C 80 % 1025,1 hPa 0,0 mm 1,6 km/h (1 Bft) N-NO 22 0 min 0 UV-I 12 W/m 8,0 km/h (2 Bft)
15.12.2010 14:50 -3,1 C 80 % 1025,1 hPa 0,0 mm 0,0 km/h (0 Bft) N-NO 22 0 min 0 UV-I 11 W/m 4,8 km/h (1 Bft)
15.12.2010 15:00 -3,2 C 81 % 1025,1 hPa 0,0 mm 0,0 km/h (0 Bft) N-NO 22 0 min 0 UV-I 9 W/m 4,8 km/h (1 Bft)
15.12.2010 15:10 -3,3 C 81 % 1025,1 hPa 0,0 mm 0,0 km/h (0 Bft) N-NO 22 0 min 0 UV-I 9 W/m 4,8 km/h (1 Bft)
15.12.2010 15:20 -3,3 C 81 % 1025,0 hPa 0,0 mm 1,6 km/h (1 Bft) NW 315 0 min 0 UV-I 12 W/m 9,7 km/h (2 Bft)
15.12.2010 15:30 -3,4 C 81 % 1024,9 hPa 0,0 mm 1,6 km/h (1 Bft) N-NO 22 0 min 0 UV-I 14 W/m 9,7 km/h (2 Bft)
15.12.2010 15:40 -3,4 C 81 % 1024,9 hPa 0,0 mm 0,0 km/h (0 Bft) N 360 0 min 0 UV-I 14 W/m 4,8 km/h (1 Bft)
15.12.2010 15:50 -3,4 C 81 % 1024,9 hPa 0,0 mm 0,4 km/h (0 Bft) N-NW 329 0 min 0 UV-I 8 W/m 3,2 km/h (1 Bft)
15.12.2010 16:00 -3,3 C 81 % 1025,0 hPa 0,0 mm 0,2 km/h (0 Bft) N-NW 328 0 min 0 UV-I 6 W/m 3,2 km/h (1 Bft)
15.12.2010 16:10 -3,3 C 81 % 1024,9 hPa 0,0 mm 1,2 km/h (1 Bft) W 269 0 min 0 UV-I 0 W/m 6,4 km/h (2 Bft)
15.12.2010 16:20 -3,4 C 81 % 1024,9 hPa 0,0 mm 0,7 km/h (0 Bft) W 273 0 min 0 UV-I 0 W/m 4,8 km/h (1 Bft)
15.12.2010 16:30 -3,4 C 81 % 1024,8 hPa 0,0 mm 0,2 km/h (0 Bft) W 275 0 min 0 UV-I 0 W/m 3,2 km/h (1 Bft)
15.12.2010 16:40 -3,4 C 81 % 1024,8 hPa 0,0 mm 0,9 km/h (0 Bft) N-NO 17 0 min 0 UV-I 0 W/m 8,0 km/h (2 Bft)
15.12.2010 16:50 -3,4 C 81 % 1024,8 hPa 0,0 mm 0,3 km/h (0 Bft) NW 321 0 min 0 UV-I 0 W/m 4,8 km/h (1 Bft)
15.12.2010 17:00 -3,4 C 81 % 1024,7 hPa 0,0 mm 0,3 km/h (0 Bft) W-NW 301 0 min 0 UV-I 0 W/m 4,8 km/h (1 Bft)
15.12.2010 17:10 -3,4 C 82 % 1024,7 hPa 0,0 mm 0,9 km/h (0 Bft) NW 307 0 min 0 UV-I 0 W/m 4,8 km/h (1 Bft)
15.12.2010 17:20 -3,4 C 82 % 1024,7 hPa 0,0 mm 0,3 km/h (0 Bft) NW 309 0 min 0 UV-I 0 W/m 3,2 km/h (1 Bft)
15.12.2010 17:30 -3,3 C 82 % 1024,6 hPa 0,0 mm 0,1 km/h (0 Bft) NW 309 0 min 0 UV-I 0 W/m 3,2 km/h (1 Bft)
15.12.2010 17:40 -3,3 C 82 % 1024,6 hPa 0,0 mm 0,0 km/h (0 Bft) NW 309 0 min 0 UV-I 0 W/m 1,6 km/h (1 Bft)
15.12.2010 17:50 -3,3 C 82 % 1024,5 hPa 0,0 mm 0,0 km/h (0 Bft) NW 308 0 min 0 UV-I 0 W/m 0,0 km/h (0 Bft)
15.12.2010 18:00 -3,3 C 82 % 1024,6 hPa 0,0 mm 0,1 km/h (0 Bft) NW 309 0 min 0 UV-I 0 W/m 1,6 km/h (1 Bft)
15.12.2010 18:10 -3,3 C 82 % 1024,6 hPa 0,0 mm 0,2 km/h (0 Bft) NW 309 0 min 0 UV-I 0 W/m 3,2 km/h (1 Bft)
15.12.2010 18:20 -3,3 C 83 % 1024,6 hPa 0,0 mm 0,3 km/h (0 Bft) NW 312 0 min 0 UV-I 0 W/m 4,8 km/h (1 Bft)
15.12.2010 18:30 -3,2 C 83 % 1024,6 hPa 0,0 mm 0,5 km/h (0 Bft) NW 311 0 min 0 UV-I 0 W/m 3,2 km/h (1 Bft)
15.12.2010 18:40 -3,2 C 83 % 1024,4 hPa 0,0 mm 0,2 km/h (0 Bft) NW 312 0 min 0 UV-I 0 W/m 3,2 km/h (1 Bft)
15.12.2010 18:50 -3,2 C 83 % 1024,4 hPa 0,0 mm 0,1 km/h (0 Bft) NW 311 0 min 0 UV-I 0 W/m 3,2 km/h (1 Bft)
15.12.2010 19:00 -3,2 C 83 % 1024,2 hPa 0,0 mm 0,0 km/h (0 Bft) NW 315 0 min 0 UV-I 0 W/m 3,2 km/h (1 Bft)
15.12.2010 19:10 -3,2 C 83 % 1024,2 hPa 0,0 mm 0,0 km/h (0 Bft) NW 315 0 min 0 UV-I 0 W/m 3,2 km/h (1 Bft)
15.12.2010 19:20 -3,2 C 83 % 1024,2 hPa 0,0 mm 0,0 km/h (0 Bft) NW 315 0 min 0 UV-I 0 W/m 4,8 km/h (1 Bft)
15.12.2010 19:30 -3,3 C 83 % 1024,2 hPa 0,0 mm 0,0 km/h (0 Bft) NW 315 0 min 0 UV-I 0 W/m 4,8 km/h (1 Bft)
15.12.2010 19:40 -3,3 C 83 % 1024,2 hPa 0,0 mm 0,0 km/h (0 Bft) NW 315 0 min 0 UV-I 0 W/m 3,2 km/h (1 Bft)
15.12.2010 19:50 -3,3 C 83 % 1024,1 hPa 0,0 mm 0,0 km/h (0 Bft) NW 315 0 min 0 UV-I 0 W/m 3,2 km/h (1 Bft)
15.12.2010 20:00 -3,3 C 83 % 1024,1 hPa 0,0 mm 0,0 km/h (0 Bft) NW 315 0 min 0 UV-I 0 W/m 3,2 km/h (1 Bft)
15.12.2010 20:10 -3,3 C 83 % 1024,3 hPa 0,0 mm 0,0 km/h (0 Bft) NW 315 0 min 0 UV-I 0 W/m 4,8 km/h (1 Bft)
15.12.2010 20:20 -3,4 C 83 % 1024,4 hPa 0,0 mm 0,0 km/h (0 Bft) NW 315 0 min 0 UV-I 0 W/m 1,6 km/h (1 Bft)
15.12.2010 20:30 -3,4 C 83 % 1024,4 hPa 0,0 mm 1,6 km/h (1 Bft) NW 315 0 min 0 UV-I 0 W/m 6,4 km/h (2 Bft)
15.12.2010 20:40 -3,4 C 83 % 1024,2 hPa 0,0 mm 0,0 km/h (0 Bft) NW 315 0 min 0 UV-I 0 W/m 4,8 km/h (1 Bft)
15.12.2010 20:50 -3,4 C 83 % 1024,1 hPa 0,0 mm 0,0 km/h (0 Bft) NW 315 0 min 0 UV-I 0 W/m 3,2 km/h (1 Bft)
15.12.2010 21:00 -3,4 C 83 % 1024,1 hPa 0,0 mm 0,0 km/h (0 Bft) NW 315 0 min 0 UV-I 0 W/m 1,6 km/h (1 Bft)
15.12.2010 21:10 -3,4 C 83 % 1024,0 hPa 0,0 mm 0,0 km/h (0 Bft) NW 315 0 min 0 UV-I 0 W/m 3,2 km/h (1 Bft)
15.12.2010 21:20 -3,5 C 83 % 1023,9 hPa 0,0 mm 0,0 km/h (0 Bft) NW 315 0 min 0 UV-I 0 W/m 3,2 km/h (1 Bft)
15.12.2010 21:30 -3,5 C 83 % 1024,0 hPa 0,0 mm 0,0 km/h (0 Bft) NW 315 0 min 0 UV-I 0 W/m 3,2 km/h (1 Bft)
15.12.2010 21:40 -3,6 C 84 % 1023,9 hPa 0,0 mm 0,0 km/h (0 Bft) NW 315 0 min 0 UV-I 0 W/m 3,2 km/h (1 Bft)
15.12.2010 21:50 -3,6 C 84 % 1023,7 hPa 0,0 mm 0,0 km/h (0 Bft) NW 315 0 min 0 UV-I 0 W/m 1,6 km/h (1 Bft)
15.12.2010 22:00 -3,6 C 84 % 1023,5 hPa 0,0 mm 0,0 km/h (0 Bft) N 0 0 min 0 UV-I 0 W/m 0,0 km/h (0 Bft)
15.12.2010 22:10 -3,6 C 84 % 1023,3 hPa 0,0 mm 0,0 km/h (0 Bft) N 0 0 min 0 UV-I 0 W/m 0,0 km/h (0 Bft)
15.12.2010 22:20 -3,7 C 84 % 1023,1 hPa 0,0 mm 0,0 km/h (0 Bft) N 0 0 min 0 UV-I 0 W/m 0,0 km/h (0 Bft)
15.12.2010 22:30 -3,7 C 84 % 1023,0 hPa 0,0 mm 0,0 km/h (0 Bft) N 0 0 min 0 UV-I 0 W/m 0,0 km/h (0 Bft)
15.12.2010 22:40 -3,7 C 84 % 1022,8 hPa 0,0 mm 0,0 km/h (0 Bft) NW 315 0 min 0 UV-I 0 W/m 1,6 km/h (1 Bft)
15.12.2010 22:50 -3,7 C 84 % 1022,8 hPa 0,0 mm 0,0 km/h (0 Bft) NW 315 0 min 0 UV-I 0 W/m 3,2 km/h (1 Bft)
15.12.2010 23:00 -3,7 C 84 % 1022,8 hPa 0,0 mm 0,0 km/h (0 Bft) NW 315 0 min 0 UV-I 0 W/m 3,2 km/h (1 Bft)
15.12.2010 23:10 -3,7 C 84 % 1022,7 hPa 0,0 mm 0,0 km/h (0 Bft) NW 315 0 min 0 UV-I 0 W/m 4,8 km/h (1 Bft)
15.12.2010 23:20 -3,7 C 84 % 1022,7 hPa 0,0 mm 0,0 km/h (0 Bft) NW 315 0 min 0 UV-I 0 W/m 4,8 km/h (1 Bft)
15.12.2010 23:30 -3,7 C 84 % 1022,6 hPa 0,0 mm 0,0 km/h (0 Bft) NW 315 0 min 0 UV-I 0 W/m 3,2 km/h (1 Bft)
15.12.2010 23:40 -3,7 C 84 % 1022,5 hPa 0,0 mm 0,0 km/h (0 Bft) NW 315 0 min 0 UV-I 0 W/m 3,2 km/h (1 Bft)
15.12.2010 23:50 -3,8 C 84 % 1022,4 hPa 0,0 mm 1,6 km/h (1 Bft) NW 315 0 min 0 UV-I 0 W/m 6,4 km/h (2 Bft)
_ Min-Zeit 03:30 14:40 23:50 - 00:40 - - - - - 06:50
Minimum _ -5,7 C 80 % 1022,4 hPa - 0,0 km/h (0 Bft) - - - - - 0,0 km/h (0 Bft)
_ Max-Zeit 13:50 08:30 00:00 00:00 02:40 - - 12:50 00:00 13:10 02:40
Maximum _ -2,4 C 90 % 1029,0 hPa 0,0 mm 4,8 km/h
W (1 Bft)
- - 10 min 0 UV-I 151 W/m 16,1 km/h
W-SW (3 Bft)
Durchschnitt _ -4,2 C 86 % 1025,9 hPa #0,0 mm 0,7 km/h (0 Bft) W - #20 min. 0 UV-I 36 W/m 5,3 km/h (1 Bft)